Time;durP1;ratioP1;P1;durP2;ratioP2;P2;SDS_P1;SDS_P2;PMS_P1;PMS_P2;Temp;Humidity;BMP_temperature;BMP_pressure;BME280_temperature;BME280_humidity;BME280_pressure;Samples;Min_cycle;Max_cycle;Signal;HPM_P1;HPM_P2
2021/12/15 00:01:16;;;;;;;89.50;26.97;;;10.10;99.90;;;;;;5115260;28;20039;-74
2021/12/15 00:03:48;;;;;;;86.68;27.60;;;10.10;99.90;;;;;;5097911;28;20273;-75
2021/12/15 00:06:18;;;;;;;94.43;28.73;;;10.10;99.90;;;;;;5115058;28;20039;-75
2021/12/15 00:08:46;;;;;;;97.50;29.38;;;10.10;99.90;;;;;;5097369;28;20122;-74
2021/12/15 00:11:12;;;;;;;102.57;28.88;;;10.10;99.90;;;;;;5114785;28;20101;-74
2021/12/15 00:13:40;;;;;;;90.75;28.88;;;10.10;99.90;;;;;;5098975;28;20043;-75
2021/12/15 00:16:08;;;;;;;92.28;29.40;;;10.10;99.90;;;;;;5133189;27;20057;-74
2021/12/15 00:18:34;;;;;;;90.90;28.40;;;10.10;99.90;;;;;;5119987;28;20078;-74
2021/12/15 00:21:01;;;;;;;93.05;28.02;;;10.10;99.90;;;;;;5103038;28;20430;-74
2021/12/15 00:23:27;;;;;;;91.07;29.77;;;10.10;99.90;;;;;;5101813;28;20062;-75
2021/12/15 00:25:53;;;;;;;95.50;28.80;;;10.10;99.90;;;;;;5121053;28;20054;-74
2021/12/15 00:28:19;;;;;;;91.28;28.38;;;10.10;99.90;;;;;;5107506;28;20043;-73
2021/12/15 00:30:45;;;;;;;86.72;27.13;;;10.10;99.90;;;;;;5124345;28;20076;-74
2021/12/15 00:33:11;;;;;;;88.05;26.83;;;10.10;99.90;;;;;;5087710;28;20039;-75
2021/12/15 00:35:38;;;;;;;93.15;30.33;;;10.10;99.90;;;;;;5134766;27;20035;-74
2021/12/15 00:38:05;;;;;;;93.88;26.95;;;10.10;99.90;;;;;;5119927;28;20039;-73
2021/12/15 00:40:32;;;;;;;99.88;29.05;;;10.10;99.90;;;;;;5100840;28;20050;-76
2021/12/15 00:42:58;;;;;;;96.60;26.97;;;10.10;99.90;;;;;;5084413;28;20192;-75
2021/12/15 00:45:25;;;;;;;85.63;25.20;;;10.10;99.90;;;;;;5116166;28;20073;-72
2021/12/15 00:47:51;;;;;;;86.80;25.13;;;10.10;99.90;;;;;;5100507;28;20078;-75
2021/12/15 00:50:29;;;;;;;91.67;26.03;;;10.10;99.90;;;;;;5117154;28;20079;-74
2021/12/15 00:52:54;;;;;;;82.38;25.55;;;10.10;99.90;;;;;;5132782;27;20364;-76
2021/12/15 00:55:22;;;;;;;99.38;26.58;;;10.10;99.90;;;;;;5096285;28;20042;-76
2021/12/15 00:57:49;;;;;;;93.32;26.30;;;10.10;99.90;;;;;;5114695;28;20043;-75
2021/12/15 01:00:20;;;;;;;89.57;25.02;;;10.10;99.90;;;;;;5096257;28;20044;-76
2021/12/15 01:02:47;;;;;;;93.10;26.60;;;10.10;99.90;;;;;;5130432;27;20443;-74
2021/12/15 01:05:14;;;;;;;93.10;25.52;;;10.10;99.90;;;;;;5114207;28;20059;-74
2021/12/15 01:07:41;;;;;;;88.80;26.75;;;10.00;99.90;;;;;;5130420;27;20083;-74
2021/12/15 01:10:10;;;;;;;97.88;26.90;;;10.00;99.90;;;;;;5130208;27;20135;-75
2021/12/15 01:20:53;;;;;;;89.30;25.95;;;10.00;99.90;;;;;;5099160;28;20039;-75
2021/12/15 01:23:24;;;;;;;88.95;24.95;;;10.10;99.90;;;;;;5095675;28;20068;-74
2021/12/15 01:25:54;;;;;;;82.50;23.17;;;10.10;99.90;;;;;;5112631;28;20035;-74
2021/12/15 01:28:23;;;;;;;105.05;26.60;;;10.00;99.90;;;;;;5113706;28;20035;-74
2021/12/15 01:30:50;;;;;;;92.18;24.48;;;10.00;99.90;;;;;;5130152;27;20062;-73
2021/12/15 01:33:17;;;;;;;87.50;24.08;;;10.10;99.90;;;;;;5095695;28;20044;-73
2021/12/15 01:35:46;;;;;;;85.38;23.88;;;10.10;99.90;;;;;;5113834;28;20040;-73
2021/12/15 01:38:13;;;;;;;92.18;25.30;;;10.00;99.90;;;;;;5096011;28;20039;-74
2021/12/15 01:40:41;;;;;;;100.90;26.40;;;10.00;99.90;;;;;;5111627;28;20395;-73
2021/12/15 01:43:26;;;;;;;97.65;24.73;;;10.00;99.90;;;;;;5113172;28;20471;-73
2021/12/15 01:48:42;;;;;;;99.43;25.77;;;10.00;99.90;;;;;;5113644;28;20039;-73
2021/12/15 01:51:10;;;;;;;;;;;10.00;99.90;;;;;;5095636;28;20039;-74
2021/12/15 01:53:36;;;;;;;87.85;22.63;;;10.00;99.90;;;;;;5129487;27;19917;-73
2021/12/15 01:56:05;;;;;;;90.47;23.90;;;10.00;99.90;;;;;;5129725;27;20036;-75
2021/12/15 01:58:30;;;;;;;91.10;23.95;;;10.00;99.90;;;;;;5095405;28;20048;-74
2021/12/15 02:01:03;;;;;;;95.57;23.88;;;10.00;99.90;;;;;;5095398;28;20046;-75
2021/12/15 02:03:29;;;;;;;101.45;24.13;;;10.00;99.90;;;;;;5062326;28;20043;-74
2021/12/15 02:05:55;;;;;;;96.65;24.40;;;10.00;99.90;;;;;;5113421;28;20050;-75
2021/12/15 02:08:21;;;;;;;103.97;24.30;;;9.90;99.90;;;;;;5078274;28;20108;-74
2021/12/15 02:10:49;;;;;;;93.93;24.77;;;9.90;99.90;;;;;;5129592;28;20096;-74
2021/12/15 02:13:17;;;;;;;;;;;9.90;99.90;;;;;;5112408;28;20471;-74
2021/12/15 02:15:49;;;;;;;84.97;22.02;;;9.90;99.90;;;;;;5113300;28;19922;-73
2021/12/15 02:18:25;;;;;;;96.13;23.58;;;9.90;99.90;;;;;;5129280;28;20051;-73
2021/12/15 02:21:01;;;;;;;89.50;23.38;;;9.90;99.90;;;;;;5112341;28;20051;-73
2021/12/15 02:23:35;;;;;;;92.65;22.73;;;9.90;99.90;;;;;;5113726;28;20376;-74
2021/12/15 02:26:04;;;;;;;90.85;23.55;;;9.90;99.90;;;;;;5094477;28;20460;-76
2021/12/15 02:28:30;;;;;;;91.80;24.10;;;9.90;99.90;;;;;;5112594;28;20487;-74
2021/12/15 02:31:05;;;;;;;88.13;23.70;;;9.90;99.90;;;;;;5094925;28;20054;-76
2021/12/15 02:39:05;;;;;;;96.25;24.27;;;9.90;99.90;;;;;;5113732;28;20047;-76
2021/12/15 02:41:31;;;;;;;101.25;24.80;;;9.90;99.90;;;;;;5094949;28;20058;-76
2021/12/15 02:44:07;;;;;;;101.80;25.90;;;9.80;99.90;;;;;;5112136;28;20047;-73
2021/12/15 02:46:34;;;;;;;100.53;25.30;;;9.90;99.90;;;;;;5094620;28;20130;-74
2021/12/15 02:49:01;;;;;;;;;;;9.90;99.90;;;;;;5112861;28;20495;-74
2021/12/15 02:51:27;;;;;;;92.63;23.40;;;9.90;99.90;;;;;;5112486;28;19920;-74
2021/12/15 02:53:57;;;;;;;99.75;24.92;;;9.90;99.90;;;;;;5097891;28;20044;-74
2021/12/15 02:56:23;;;;;;;95.93;23.58;;;9.90;99.90;;;;;;5116263;28;20046;-74
2021/12/15 02:58:55;;;;;;;114.57;27.75;;;9.90;99.90;;;;;;5097929;28;20063;-75
2021/12/15 03:01:33;;;;;;;120.68;27.10;;;9.80;99.90;;;;;;5116235;28;20047;-75
2021/12/15 03:04:09;;;;;;;108.97;27.08;;;9.90;99.90;;;;;;5133023;27;20352;-74
2021/12/15 03:06:47;;;;;;;115.30;27.73;;;9.90;99.90;;;;;;5115980;28;20353;-75
2021/12/15 03:17:34;;;;;;;118.13;28.13;;;9.80;99.90;;;;;;5116514;28;20051;-75
2021/12/15 03:20:00;;;;;;;108.75;27.55;;;9.80;99.90;;;;;;5097990;28;20154;-74
2021/12/15 03:22:26;;;;;;;104.57;27.15;;;9.80;99.90;;;;;;5097812;28;20071;-73
2021/12/15 03:24:52;;;;;;;103.50;28.10;;;9.80;99.90;;;;;;5115901;28;20086;-75
2021/12/15 03:27:23;;;;;;;118.53;30.17;;;9.90;99.90;;;;;;5097923;28;20071;-75
2021/12/15 03:35:47;;;;;;;108.22;26.30;;;9.90;99.90;;;;;;5098638;28;20100;-75
2021/12/15 03:38:13;;;;;;;117.15;28.23;;;9.90;99.90;;;;;;5081223;28;20052;-74
2021/12/15 03:40:41;;;;;;;113.07;28.98;;;9.90;99.90;;;;;;5097422;28;20062;-75
2021/12/15 03:43:15;;;;;;;103.35;26.80;;;9.90;99.90;;;;;;5098098;28;20073;-76
2021/12/15 03:45:51;;;;;;;116.15;29.77;;;9.90;99.90;;;;;;5063845;28;20047;-76
2021/12/15 03:48:21;;;;;;;130.87;31.67;;;9.90;99.90;;;;;;5116056;28;20043;-75
2021/12/15 03:50:48;;;;;;;109.43;28.55;;;9.90;99.90;;;;;;5097930;28;20051;-75
2021/12/15 03:53:15;;;;;;;106.03;28.10;;;9.90;99.90;;;;;;5115522;28;20495;-75
2021/12/15 03:55:42;;;;;;;120.13;29.90;;;9.90;99.90;;;;;;5097895;28;20044;-75
2021/12/15 03:58:11;;;;;;;;;;;9.90;99.90;;;;;;5115469;28;20134;-75
2021/12/15 04:00:42;;;;;;;106.55;27.65;;;9.90;99.90;;;;;;5115058;28;20367;-74
2021/12/15 04:03:30;;;;;;;114.88;29.75;;;9.80;99.90;;;;;;5132139;27;20058;-74
2021/12/15 04:06:00;;;;;;;123.15;30.92;;;9.80;99.90;;;;;;5097704;28;20103;-77
2021/12/15 04:08:27;;;;;;;114.28;29.70;;;9.80;99.90;;;;;;5115596;28;20047;-76
2021/12/15 04:10:53;;;;;;;125.70;31.13;;;9.80;99.90;;;;;;5115457;28;20055;-76
2021/12/15 04:13:19;;;;;;;118.25;29.83;;;9.90;99.90;;;;;;5116108;28;20161;-75
2021/12/15 04:15:53;;;;;;;122.68;32.55;;;9.90;99.90;;;;;;5082543;28;20154;-75
2021/12/15 04:18:18;;;;;;;119.05;30.60;;;9.80;99.90;;;;;;5120989;28;20059;-75
2021/12/15 04:20:44;;;;;;;128.27;32.33;;;9.80;99.90;;;;;;5085245;28;20167;-75
2021/12/15 04:23:12;;;;;;;130.15;33.90;;;9.90;99.90;;;;;;5101108;28;20135;-75
2021/12/15 04:25:40;;;;;;;123.13;32.38;;;9.90;99.90;;;;;;5133001;27;20078;-74
2021/12/15 04:28:22;;;;;;;126.68;33.50;;;9.90;99.90;;;;;;5100334;28;20049;-76
2021/12/15 04:30:54;;;;;;;124.40;33.20;;;9.80;99.90;;;;;;5117713;27;20044;-76
2021/12/15 04:33:32;;;;;;;127.13;34.05;;;9.80;99.90;;;;;;5117110;28;20040;-74
2021/12/15 04:36:01;;;;;;;127.85;34.13;;;9.80;99.90;;;;;;5119055;28;20043;-75
2021/12/15 04:38:29;;;;;;;129.32;34.15;;;9.80;99.90;;;;;;5136961;27;20059;-77
2021/12/15 04:40:59;;;;;;;123.40;32.45;;;9.80;99.90;;;;;;5100911;28;20060;-75
2021/12/15 04:43:29;;;;;;;126.13;33.97;;;9.90;99.90;;;;;;5133997;27;20055;-76
2021/12/15 04:45:56;;;;;;;130.18;33.97;;;9.80;99.90;;;;;;5119028;28;20067;-76
2021/12/15 04:48:21;;;;;;;133.30;34.73;;;9.80;99.90;;;;;;5118550;28;20100;-74
2021/12/15 04:50:48;;;;;;;130.13;33.90;;;9.80;99.90;;;;;;5083933;28;20681;-75
2021/12/15 04:53:14;;;;;;;133.65;36.03;;;9.80;99.90;;;;;;5083790;28;20525;-74
2021/12/15 04:55:40;;;;;;;132.70;35.72;;;9.80;99.90;;;;;;5133518;27;20094;-74
2021/12/15 04:58:08;;;;;;;129.52;35.60;;;9.80;99.90;;;;;;5081446;28;20043;-74
2021/12/15 05:00:45;;;;;;;128.10;35.63;;;9.80;99.90;;;;;;5097005;28;20088;-75
2021/12/15 05:03:11;;;;;;;135.85;37.60;;;9.80;99.90;;;;;;5096050;28;20039;-75
2021/12/15 05:05:38;;;;;;;127.32;34.92;;;9.90;99.90;;;;;;5095927;28;20047;-75
2021/12/15 05:08:05;;;;;;;132.03;37.30;;;9.80;99.90;;;;;;5114150;28;20054;-75
2021/12/15 05:10:30;;;;;;;132.20;38.63;;;9.80;99.90;;;;;;5096326;28;20586;-74
2021/12/15 05:12:57;;;;;;;122.20;35.45;;;9.80;99.90;;;;;;5113824;28;20065;-74
2021/12/15 05:15:24;;;;;;;129.15;35.92;;;9.80;99.90;;;;;;5095155;28;20050;-75
2021/12/15 05:17:50;;;;;;;;;;;9.80;99.90;;;;;;5096214;28;20048;-75
2021/12/15 05:20:18;;;;;;;134.83;37.47;;;9.80;99.90;;;;;;5078812;28;20371;-74
2021/12/15 05:22:44;;;;;;;126.63;36.35;;;9.80;99.90;;;;;;5079134;28;20501;-76
2021/12/15 05:25:11;;;;;;;126.25;35.42;;;9.80;99.90;;;;;;5112329;28;20047;-75
2021/12/15 05:27:39;;;;;;;136.95;39.58;;;9.80;99.90;;;;;;5096047;28;20056;-76
2021/12/15 05:30:08;;;;;;;157.00;47.15;;;9.80;99.90;;;;;;5129032;27;20050;-75
2021/12/15 05:32:34;;;;;;;129.27;35.65;;;9.80;99.90;;;;;;5113477;28;20146;-73
2021/12/15 05:35:00;;;;;;;137.45;37.80;;;9.80;99.90;;;;;;5113428;28;20471;-74
2021/12/15 05:37:28;;;;;;;127.05;36.53;;;9.80;99.90;;;;;;5094938;28;20058;-74
2021/12/15 05:39:55;;;;;;;128.52;36.10;;;9.80;99.90;;;;;;5094924;28;20050;-74
2021/12/15 05:42:22;;;;;;;129.30;37.05;;;9.80;99.90;;;;;;5113287;28;20056;-75
2021/12/15 05:44:49;;;;;;;142.68;40.65;;;9.80;99.90;;;;;;5112894;28;20058;-74
2021/12/15 05:47:16;;;;;;;129.68;35.75;;;9.80;99.90;;;;;;5095020;28;20364;-74
2021/12/15 05:49:43;;;;;;;136.80;38.33;;;9.80;99.90;;;;;;5095809;28;20394;-74
2021/12/15 05:52:09;;;;;;;130.93;37.50;;;9.80;99.90;;;;;;5095155;28;20120;-74
2021/12/15 05:54:36;;;;;;;138.80;38.30;;;9.80;99.90;;;;;;5113186;28;20039;-74
2021/12/15 05:57:02;;;;;;;126.30;35.90;;;9.90;99.90;;;;;;5078469;28;20055;-74
2021/12/15 05:59:28;;;;;;;128.07;34.47;;;9.80;99.90;;;;;;5078342;28;20070;-73
2021/12/15 06:01:54;;;;;;;125.70;36.17;;;9.80;99.90;;;;;;5078161;28;20107;-74
2021/12/15 06:04:21;;;;;;;130.52;37.85;;;9.80;99.90;;;;;;5129140;28;20502;-74
2021/12/15 06:06:47;;;;;;;132.15;36.83;;;9.80;99.90;;;;;;5078072;28;20352;-74
2021/12/15 06:09:14;;;;;;;128.43;34.67;;;9.80;99.90;;;;;;5129123;28;20062;-74
2021/12/15 06:11:40;;;;;;;131.40;35.80;;;9.80;99.90;;;;;;5094493;28;20088;-73
2021/12/15 06:14:06;;;;;;;135.55;37.90;;;9.80;99.90;;;;;;5112530;28;20579;-73
2021/12/15 06:16:34;;;;;;;132.23;37.55;;;9.80;99.90;;;;;;5112759;28;20122;-75
2021/12/15 06:19:00;;;;;;;135.82;36.20;;;9.80;99.90;;;;;;5094151;28;20048;-74
2021/12/15 06:21:26;;;;;;;131.63;36.38;;;9.80;99.90;;;;;;5094697;28;20049;-73
2021/12/15 06:23:52;;;;;;;129.27;36.30;;;9.80;99.90;;;;;;5128365;28;20082;-74
2021/12/15 06:26:19;;;;;;;128.52;36.25;;;9.80;99.90;;;;;;5112829;28;20075;-75
2021/12/15 06:28:46;;;;;;;134.05;35.53;;;9.90;99.90;;;;;;5080954;28;20451;-74
2021/12/15 06:31:14;;;;;;;125.55;36.00;;;9.80;99.90;;;;;;5117477;28;20047;-74
2021/12/15 06:33:41;;;;;;;130.32;34.22;;;9.80;99.90;;;;;;5117095;28;20134;-76
2021/12/15 06:36:08;;;;;;;126.82;33.58;;;9.90;99.90;;;;;;5098723;28;20051;-74
2021/12/15 06:38:41;;;;;;;125.10;38.38;;;9.90;99.90;;;;;;5116918;28;20083;-73
2021/12/15 06:41:08;;;;;;;127.00;34.50;;;9.90;99.90;;;;;;5115436;28;20164;-74
2021/12/15 06:43:35;;;;;;;;;;;9.90;99.90;;;;;;5117250;28;20134;-76
2021/12/15 06:59:34;;;;;;;132.85;35.78;;;9.90;99.90;;;;;;5116392;28;20054;-73
2021/12/15 07:02:01;;;;;;;128.40;37.83;;;9.90;99.90;;;;;;5081503;28;20099;-74
2021/12/15 07:04:27;;;;;;;;;;;9.80;99.90;;;;;;5098938;28;20043;-74
2021/12/15 07:06:53;;;;;;;129.77;33.50;;;9.90;99.90;;;;;;5115972;28;20015;-75
2021/12/15 07:09:21;;;;;;;128.45;35.80;;;9.90;99.90;;;;;;5116209;28;20051;-75
2021/12/15 07:11:47;;;;;;;;;;;9.80;99.90;;;;;;5098509;28;20055;-74
2021/12/15 07:14:12;;;;;;;125.50;34.65;;;9.90;99.90;;;;;;5132453;27;19975;-74
2021/12/15 07:16:42;;;;;;;129.60;33.63;;;9.80;99.90;;;;;;5132701;27;20554;-75
2021/12/15 07:24:33;;;;;;;127.20;34.13;;;9.90;99.90;;;;;;5097829;28;20097;-74
2021/12/15 07:27:00;;;;;;;130.57;35.53;;;9.90;99.90;;;;;;5115934;28;20114;-75
2021/12/15 07:29:29;;;;;;;131.73;34.03;;;9.90;99.90;;;;;;5116047;28;20490;-76
2021/12/15 07:31:56;;;;;;;121.78;36.25;;;9.90;99.90;;;;;;5132219;27;20101;-75
2021/12/15 07:34:22;;;;;;;118.35;33.28;;;9.90;99.90;;;;;;5114667;28;20469;-76
2021/12/15 07:36:48;;;;;;;131.50;36.93;;;9.80;99.90;;;;;;5080995;28;20074;-75
2021/12/15 07:39:15;;;;;;;125.45;34.70;;;9.90;99.90;;;;;;5096622;28;20035;-74
2021/12/15 07:41:50;;;;;;;124.75;34.05;;;9.80;99.90;;;;;;5080102;28;20155;-74
2021/12/15 07:44:17;;;;;;;135.10;35.35;;;9.90;99.90;;;;;;5099099;28;20256;-74
2021/12/15 07:46:44;;;;;;;127.43;35.22;;;9.90;99.90;;;;;;5097465;28;20548;-74
2021/12/15 07:49:12;;;;;;;116.88;33.85;;;9.90;99.90;;;;;;5097021;28;20115;-74
2021/12/15 07:51:41;;;;;;;129.02;34.10;;;9.90;99.90;;;;;;5080793;28;20055;-75
2021/12/15 07:54:06;;;;;;;118.00;33.58;;;9.90;99.90;;;;;;5115215;28;20050;-75
2021/12/15 07:56:32;;;;;;;126.38;35.03;;;10.00;99.90;;;;;;5079344;28;20472;-75
2021/12/15 07:58:58;;;;;;;125.20;34.38;;;9.90;99.90;;;;;;5096944;28;20043;-74
2021/12/15 08:01:24;;;;;;;127.35;35.22;;;9.90;99.90;;;;;;5097034;28;20395;-75
2021/12/15 08:03:54;;;;;;;128.55;33.75;;;9.90;99.90;;;;;;5114971;28;20054;-74
2021/12/15 08:06:24;;;;;;;132.85;35.15;;;9.90;99.90;;;;;;5115521;28;20100;-75
2021/12/15 08:08:51;;;;;;;135.30;34.95;;;9.90;99.90;;;;;;5117953;28;20036;-77
2021/12/15 08:11:17;;;;;;;129.73;34.85;;;9.90;99.90;;;;;;5119435;28;20069;-75
2021/12/15 08:13:43;;;;;;;133.57;35.10;;;9.90;99.90;;;;;;5117897;28;20515;-74
2021/12/15 08:16:09;;;;;;;130.73;33.00;;;9.90;99.90;;;;;;5101149;28;20051;-75
2021/12/15 08:18:36;;;;;;;132.00;36.35;;;10.00;99.90;;;;;;5100105;28;20042;-74
2021/12/15 08:21:04;;;;;;;131.50;35.63;;;9.90;99.90;;;;;;5117523;28;20096;-76
2021/12/15 08:23:31;;;;;;;129.65;33.88;;;10.00;99.90;;;;;;5086098;28;20099;-75
2021/12/15 08:25:59;;;;;;;126.03;34.05;;;10.00;99.90;;;;;;5085425;28;20059;-79
2021/12/15 08:28:25;;;;;;;114.25;32.70;;;10.00;99.90;;;;;;5099826;28;20046;-73
2021/12/15 08:30:52;;;;;;;121.90;33.97;;;10.00;99.90;;;;;;5098603;28;20447;-74
2021/12/15 08:33:21;;;;;;;122.82;35.28;;;10.00;99.90;;;;;;5117554;28;20128;-74
2021/12/15 08:35:59;;;;;;;123.72;33.95;;;10.00;99.90;;;;;;5115410;28;20051;-75
2021/12/15 08:38:32;;;;;;;123.47;34.08;;;10.00;99.90;;;;;;5097970;28;20123;-76
2021/12/15 08:41:00;;;;;;;125.97;34.83;;;10.00;99.90;;;;;;5100048;28;20067;-77
2021/12/15 08:43:26;;;;;;;122.65;34.15;;;9.90;99.90;;;;;;5084504;28;20134;-75
2021/12/15 08:46:01;;;;;;;134.95;37.50;;;10.00;99.90;;;;;;5086618;28;20047;-75
2021/12/15 08:48:28;;;;;;;132.68;36.25;;;10.00;99.90;;;;;;5115342;28;20107;-74
2021/12/15 08:50:55;;;;;;;134.60;35.83;;;10.00;99.90;;;;;;5113597;28;20047;-74
2021/12/15 08:53:21;;;;;;;124.65;33.75;;;10.00;99.90;;;;;;5113797;28;20123;-73
2021/12/15 08:55:49;;;;;;;121.40;34.53;;;10.00;99.90;;;;;;5113939;28;20052;-72
2021/12/15 08:58:18;;;;;;;116.57;30.83;;;10.00;99.90;;;;;;5095961;28;20342;-73
2021/12/15 09:00:45;;;;;;;120.07;32.90;;;10.00;99.90;;;;;;5129655;27;20046;-71
2021/12/15 09:03:13;;;;;;;117.28;31.73;;;10.00;99.90;;;;;;5078903;28;20071;-72
2021/12/15 09:05:41;;;;;;;128.70;37.25;;;10.10;99.90;;;;;;5113483;28;20540;-73
2021/12/15 09:08:09;;;;;;;123.97;31.70;;;10.10;99.90;;;;;;5096318;28;20047;-72
2021/12/15 09:10:37;;;;;;;109.95;31.35;;;10.10;99.90;;;;;;5095883;28;20119;-71
2021/12/15 09:13:04;;;;;;;107.07;30.25;;;10.10;99.90;;;;;;5114155;28;20051;-72
2021/12/15 09:15:31;;;;;;;118.97;32.95;;;10.10;99.90;;;;;;5113978;28;20051;-71
2021/12/15 09:17:57;;;;;;;116.93;32.83;;;10.20;99.90;;;;;;5130125;27;20402;-72
2021/12/15 09:20:26;;;;;;;116.32;30.92;;;10.20;99.90;;;;;;5095673;28;20046;-71
2021/12/15 09:22:52;;;;;;;123.07;32.78;;;10.20;99.90;;;;;;5112505;28;20051;-71
2021/12/15 09:25:18;;;;;;;116.93;32.63;;;10.30;99.90;;;;;;5114827;28;20039;-73
2021/12/15 09:27:45;;;;;;;112.70;31.13;;;10.30;99.90;;;;;;5095899;28;20071;-72
2021/12/15 09:30:16;;;;;;;125.10;31.63;;;10.30;99.90;;;;;;5113683;28;20043;-71
2021/12/15 09:32:43;;;;;;;110.18;32.67;;;10.30;99.90;;;;;;5113741;28;20317;-72
2021/12/15 09:35:10;;;;;;;118.70;30.90;;;10.30;99.90;;;;;;5095516;28;20058;-72
2021/12/15 09:37:36;;;;;;;105.10;29.70;;;10.30;99.90;;;;;;5112629;28;20417;-72
2021/12/15 09:40:04;;;;;;;110.10;30.38;;;10.30;99.90;;;;;;5094394;28;20040;-71
2021/12/15 09:42:35;;;;;;;115.47;30.20;;;10.40;99.90;;;;;;5094440;28;20058;-72
2021/12/15 09:45:19;;;;;;;112.70;31.10;;;10.40;99.90;;;;;;5113028;28;20043;-71
2021/12/15 10:04:42;;;;;;;107.40;30.35;;;10.40;99.90;;;;;;5094587;28;20051;-73
2021/12/15 10:06:53;;;;;;;113.45;30.02;;;10.40;99.90;;;;;;5086186;28;20055;-72
2021/12/15 10:19:55;;;;;;;97.18;28.50;;;10.50;99.90;;;;;;5097534;28;20050;-71
2021/12/15 10:25:00;;;;;;;88.18;26.13;;;10.60;99.90;;;;;;5118032;28;20102;-72
2021/12/15 10:27:45;;;;;;;90.55;28.15;;;10.60;99.90;;;;;;5115214;28;20048;-73
2021/12/15 10:30:21;;;;;;;94.53;27.10;;;10.70;99.90;;;;;;5115694;28;20075;-72
2021/12/15 10:32:53;;;;;;;93.82;26.23;;;10.70;99.90;;;;;;5114776;28;20059;-73
2021/12/15 10:35:21;;;;;;;94.60;26.83;;;10.70;99.90;;;;;;5098020;28;20582;-73
2021/12/15 10:38:28;;;;;;;90.05;27.17;;;10.80;99.90;;;;;;5080353;28;20043;-72
2021/12/15 10:41:08;;;;;;;84.78;26.27;;;10.80;99.90;;;;;;5115688;28;20372;-73
2021/12/15 10:43:44;;;;;;;83.50;22.73;;;10.80;99.90;;;;;;5115813;28;20357;-72
2021/12/15 10:46:16;;;;;;;78.88;22.23;;;10.90;99.90;;;;;;5115133;28;20074;-71
2021/12/15 10:49:20;;;;;;;67.80;22.52;;;10.90;99.90;;;;;;5097446;28;20055;-72
2021/12/15 10:52:01;;;;;;;76.20;24.08;;;10.90;99.90;;;;;;5113028;28;20134;-71
2021/12/15 10:54:35;;;;;;;72.18;21.98;;;11.00;99.90;;;;;;5115181;28;20079;-72
2021/12/15 10:57:06;;;;;;;78.18;23.63;;;11.00;99.90;;;;;;5096791;28;20040;-73
2021/12/15 10:59:41;;;;;;;75.95;23.02;;;11.00;99.90;;;;;;5096339;28;20040;-72
2021/12/15 11:02:20;;;;;;;71.97;22.52;;;11.00;99.90;;;;;;5131179;28;20048;-73
2021/12/15 11:05:05;;;;;;;74.85;22.88;;;11.00;99.90;;;;;;5114023;28;20241;-71
2021/12/15 11:07:32;;;;;;;66.22;22.77;;;11.10;99.90;;;;;;5114764;28;20052;-72
2021/12/15 11:10:07;;;;;;;68.38;21.95;;;11.20;99.90;;;;;;5114812;28;20051;-72
2021/12/15 11:12:48;;;;;;;72.07;22.35;;;11.20;99.90;;;;;;5131153;28;20363;-72
2021/12/15 11:15:18;;;;;;;68.30;20.65;;;11.20;99.90;;;;;;5117914;28;20070;-72
2021/12/15 11:18:00;;;;;;;71.60;22.55;;;11.20;99.90;;;;;;5100666;28;20047;-72
2021/12/15 11:20:38;;;;;;;69.28;22.40;;;11.20;99.90;;;;;;5118653;28;20039;-72
2021/12/15 11:23:05;;;;;;;63.25;22.10;;;11.30;99.90;;;;;;5118152;28;20105;-71
2021/12/15 11:25:33;;;;;;;64.53;23.05;;;11.30;99.90;;;;;;5116035;28;20495;-72
2021/12/15 11:28:16;;;;;;;75.22;23.80;;;11.30;99.90;;;;;;5118383;28;20052;-72
2021/12/15 11:30:58;;;;;;;65.10;21.35;;;11.30;99.90;;;;;;5100425;28;20060;-73
2021/12/15 11:33:53;;;;;;;74.72;21.67;;;11.30;99.90;;;;;;5100657;28;20403;-72
2021/12/15 11:36:42;;;;;;;68.38;21.05;;;11.30;99.90;;;;;;5101882;28;20058;-73
2021/12/15 11:39:15;;;;;;;59.80;19.42;;;11.10;99.90;;;;;;5104595;28;20040;-73
2021/12/15 11:41:50;;;;;;;58.28;19.75;;;11.10;99.90;;;;;;5135290;27;20135;-73
2021/12/15 11:44:19;;;;;;;67.88;19.98;;;11.10;99.90;;;;;;5100283;28;20135;-72
2021/12/15 11:46:55;;;;;;;56.85;18.70;;;11.10;99.90;;;;;;5118553;28;20406;-72
2021/12/15 11:49:24;;;;;;;65.53;21.13;;;11.10;99.90;;;;;;5099518;28;20055;-72
2021/12/15 11:52:05;;;;;;;59.88;20.17;;;11.10;99.90;;;;;;5099329;28;20138;-72
2021/12/15 11:54:38;;;;;;;55.88;18.80;;;11.20;99.90;;;;;;5099641;28;20058;-72
2021/12/15 11:57:06;;;;;;;51.33;17.40;;;11.20;99.90;;;;;;5117513;28;20084;-73
2021/12/15 11:59:33;;;;;;;56.75;17.15;;;11.20;99.90;;;;;;5117438;28;20442;-73
2021/12/15 12:02:04;;;;;;;54.55;19.02;;;11.30;99.90;;;;;;5117125;28;20048;-72
2021/12/15 12:04:44;;;;;;;51.25;16.95;;;11.30;99.90;;;;;;5118456;28;20054;-73
2021/12/15 12:07:21;;;;;;;46.38;16.63;;;11.30;99.90;;;;;;5118105;28;20054;-71
2021/12/15 12:10:16;;;;;;;50.45;16.95;;;11.30;99.90;;;;;;5118101;28;20046;-73
2021/12/15 12:12:52;;;;;;;52.05;16.67;;;11.30;99.90;;;;;;5117809;28;20048;-72
2021/12/15 12:15:21;;;;;;;48.78;16.63;;;11.40;99.90;;;;;;5118107;28;20073;-72
2021/12/15 12:18:00;;;;;;;47.55;16.42;;;11.40;99.90;;;;;;5117872;28;20052;-72
2021/12/15 12:20:29;;;;;;;54.00;18.55;;;11.40;99.90;;;;;;5117367;28;20046;-72
2021/12/15 12:22:57;;;;;;;50.97;17.00;;;11.30;99.90;;;;;;5083119;28;20051;-72
2021/12/15 12:25:26;;;;;;;53.88;17.10;;;11.30;99.90;;;;;;5098500;28;20398;-72
2021/12/15 12:27:54;;;;;;;50.50;17.30;;;11.30;99.90;;;;;;5117598;28;20047;-72
2021/12/15 12:30:40;;;;;;;51.78;16.25;;;11.30;99.90;;;;;;5099723;27;20039;-71
2021/12/15 12:33:09;;;;;;;48.88;17.70;;;11.20;99.90;;;;;;5100210;28;20048;-73
2021/12/15 12:35:48;;;;;;;58.53;19.15;;;11.20;99.90;;;;;;5100228;28;20083;-74
2021/12/15 12:38:15;;;;;;;56.58;17.95;;;11.10;99.90;;;;;;5118765;28;20080;-74
2021/12/15 12:41:02;;;;;;;52.50;16.98;;;11.10;99.90;;;;;;5098493;28;20082;-73
2021/12/15 12:43:29;;;;;;;50.33;17.13;;;11.10;99.90;;;;;;5081402;28;20081;-73
2021/12/15 12:46:12;;;;;;;57.20;17.25;;;11.00;99.90;;;;;;5116999;28;20054;-71
2021/12/15 12:59:49;;;;;;;46.90;16.67;;;11.00;99.90;;;;;;5116781;28;20070;-74
2021/12/15 13:02:39;;;;;;;47.00;17.30;;;11.00;99.90;;;;;;5116312;28;20040;-74
2021/12/15 13:05:28;;;;;;;47.25;17.10;;;11.00;99.90;;;;;;5133110;27;20449;-73
2021/12/15 13:07:56;;;;;;;50.05;16.38;;;11.00;99.90;;;;;;5098634;28;20116;-72
2021/12/15 13:10:45;;;;;;;48.75;16.58;;;11.00;99.90;;;;;;5098244;28;20052;-72
2021/12/15 13:13:22;;;;;;;43.75;14.80;;;10.90;99.90;;;;;;5081093;28;20047;-75
2021/12/15 13:16:09;;;;;;;;;;;10.90;99.90;;;;;;5116963;28;20044;-73
2021/12/15 13:18:46;;;;;;;45.70;14.27;;;10.80;99.90;;;;;;5131857;27;19969;-73
2021/12/15 13:21:13;;;;;;;43.88;13.57;;;10.90;99.90;;;;;;5116783;28;20047;-74
2021/12/15 13:23:57;;;;;;;40.65;13.60;;;10.90;99.90;;;;;;5080770;28;20154;-73
2021/12/15 13:29:52;;;;;;;33.78;10.77;;;10.90;99.90;;;;;;5017387;28;20060;-74
2021/12/15 13:32:25;;;;;;;32.13;11.63;;;10.90;99.90;;;;;;5096851;28;20537;-75
2021/12/15 13:34:51;;;;;;;34.50;11.32;;;10.90;99.90;;;;;;5133377;27;20048;-73
2021/12/15 13:37:49;;;;;;;34.95;10.88;;;10.80;99.90;;;;;;5098197;28;20179;-73
2021/12/15 13:40:15;;;;;;;34.10;11.20;;;10.90;99.90;;;;;;5116569;28;20075;-73
2021/12/15 13:43:01;;;;;;;31.10;11.00;;;10.80;99.90;;;;;;5116291;28;20055;-73
2021/12/15 13:45:50;;;;;;;38.17;11.00;;;10.80;99.90;;;;;;5115933;28;20048;-73
2021/12/15 13:48:17;;;;;;;31.67;9.15;;;10.80;99.90;;;;;;5097119;28;20077;-73
2021/12/15 13:50:45;;;;;;;27.63;8.50;;;10.80;99.90;;;;;;5116545;28;20122;-72
2021/12/15 13:53:12;;;;;;;28.00;8.75;;;10.80;99.90;;;;;;5097960;28;20115;-73
2021/12/15 13:55:38;;;;;;;;;;;10.80;99.90;;;;;;5116226;28;20103;-72
2021/12/15 13:58:13;;;;;;;31.17;7.90;;;10.80;99.90;;;;;;5097634;28;19927;-72
2021/12/15 14:00:44;;;;;;;21.63;8.35;;;10.80;99.90;;;;;;5115713;28;20093;-73
2021/12/15 14:03:19;;;;;;;23.98;8.05;;;10.80;99.90;;;;;;5097999;28;20111;-72
2021/12/15 14:06:22;;;;;;;25.65;7.32;;;10.80;99.90;;;;;;5098920;28;20134;-73
2021/12/15 14:09:04;;;;;;;25.50;7.60;;;10.80;99.90;;;;;;5060038;28;20115;-73
2021/12/15 14:11:34;;;;;;;21.23;7.57;;;10.70;99.90;;;;;;5116034;28;20047;-71
2021/12/15 14:14:04;;;;;;;28.58;7.68;;;10.70;99.90;;;;;;5117219;28;20051;-73
2021/12/15 14:16:48;;;;;;;24.83;7.35;;;10.60;99.90;;;;;;5116055;28;20100;-74
2021/12/15 14:19:18;;;;;;;20.13;6.72;;;10.60;99.90;;;;;;5114647;28;20043;-73
2021/12/15 14:21:47;;;;;;;20.27;6.00;;;10.60;99.90;;;;;;5115706;28;20062;-72